Time;durP1;ratioP1;P1;durP2;ratioP2;P2;SDS_P1;SDS_P2;PMS_P1;PMS_P2;Temp;Humidity;BMP_temperature;BMP_pressure;BME280_temperature;BME280_humidity;BME280_pressure;Samples;Min_cycle;Max_cycle;Signal;HPM_P1;HPM_P2
2023/03/02 00:02:10;;;;;;;;;;;3.60;99.90;;;;;;4908168;29;19935;-77
2023/03/02 00:04:36;;;;;;;;;;;3.60;99.90;;;;;;4908847;29;19927;-78
2023/03/02 00:07:04;;;;;;;;;;;4.80;99.90;;;;;;4887780;29;19938;-77
2023/03/02 00:09:31;;;;;;;;;;;4.70;99.90;;;;;;4892401;29;19934;-78
2023/03/02 00:11:56;;;;;;;;;;;3.40;99.90;;;;;;4907046;29;19927;-77
2023/03/02 00:14:22;;;;;;;;;;;3.50;99.90;;;;;;4906573;29;19927;-78
2023/03/02 00:16:48;;;;;;;;;;;5.20;99.90;;;;;;4889058;29;20026;-78
2023/03/02 00:19:13;;;;;;;;;;;4.00;99.90;;;;;;4892001;29;19931;-77
2023/03/02 00:21:41;;;;;;;;;;;3.50;99.90;;;;;;4907056;29;19933;-78
2023/03/02 00:24:07;;;;;;;;;;;3.40;99.90;;;;;;4909028;29;19975;-78
2023/03/02 00:26:33;;;;;;;;;;;3.70;99.90;;;;;;4910531;29;20095;-78
2023/03/02 00:29:02;;;;;;;;;;;4.90;99.90;;;;;;4907746;29;20385;-77
2023/03/02 00:31:28;;;;;;;;;;;3.30;99.90;;;;;;4907804;29;20402;-77
2023/03/02 00:33:53;;;;;;;;;;;5.10;99.90;;;;;;4907192;29;19936;-77
2023/03/02 00:36:20;;;;;;;;;;;3.70;99.90;;;;;;4892391;29;19927;-78
2023/03/02 00:38:45;;;;;;;;;;;5.00;99.90;;;;;;4889933;29;19949;-78
2023/03/02 00:41:12;;;;;;;;;;;3.70;99.90;;;;;;4905996;29;20466;-78
2023/03/02 00:43:37;;;;;;;;;;;3.30;99.90;;;;;;4906449;29;19935;-78
2023/03/02 00:46:13;;;;;;;;;;;3.30;99.90;;;;;;4906678;29;19931;-78
2023/03/02 00:48:38;;;;;;;;;;;3.30;99.90;;;;;;4891315;29;20376;-78
2023/03/02 00:51:04;;;;;;;;;;;4.40;99.90;;;;;;4905748;29;19927;-78
2023/03/02 00:53:30;;;;;;;;;;;3.30;99.90;;;;;;4891332;29;19928;-78
2023/03/02 00:55:56;;;;;;;;;;;3.30;99.90;;;;;;4904845;29;20042;-78
2023/03/02 00:58:21;;;;;;;;;;;3.60;99.90;;;;;;4903983;29;19931;-78
2023/03/02 01:00:47;;;;;;;;;;;3.30;99.90;;;;;;4889272;29;19931;-77
2023/03/02 01:03:13;;;;;;;;;;;3.30;99.90;;;;;;4896747;29;20355;-78
2023/03/02 01:05:38;;;;;;;;;;;3.30;99.90;;;;;;4905942;29;19976;-77
2023/03/02 01:08:04;;;;;;;;;;;3.30;99.90;;;;;;4890865;29;20291;-77
2023/03/02 01:10:30;;;;;;;;;;;4.40;99.90;;;;;;4909414;29;19962;-78
2023/03/02 01:12:56;;;;;;;;;;;3.20;99.90;;;;;;4898985;29;19927;-78
2023/03/02 01:15:21;;;;;;;;;;;3.20;99.90;;;;;;4909529;29;19943;-78
2023/03/02 01:17:47;;;;;;;;;;;3.20;99.90;;;;;;4890915;29;19963;-78
2023/03/02 01:20:13;;;;;;;;;;;3.90;99.90;;;;;;4908165;29;20010;-77
2023/03/02 01:22:38;;;;;;;;;;;5.20;99.90;;;;;;4909364;29;19958;-77
2023/03/02 01:25:04;;;;;;;;;;;3.30;99.90;;;;;;4904979;29;20371;-77
2023/03/02 01:27:30;;;;;;;;;;;3.30;99.90;;;;;;4891443;29;19977;-77
2023/03/02 01:29:55;;;;;;;;;;;4.00;99.90;;;;;;4889477;29;20314;-77
2023/03/02 01:32:21;;;;;;;;;;;5.10;99.90;;;;;;4905100;29;20030;-77
2023/03/02 01:34:49;;;;;;;;;;;4.30;99.90;;;;;;4887460;29;19927;-78
2023/03/02 01:37:19;;;;;;;;;;;3.00;99.90;;;;;;4890765;29;19927;-77
2023/03/02 01:39:45;;;;;;;;;;;3.10;99.90;;;;;;4888858;29;19976;-78
2023/03/02 01:42:11;;;;;;;;;;;3.10;99.90;;;;;;4891195;29;19978;-78
2023/03/02 01:44:41;;;;;;;;;;;3.00;99.90;;;;;;4905341;29;19934;-78
2023/03/02 01:47:18;;;;;;;;;;;3.10;99.90;;;;;;4907730;29;19935;-78
2023/03/02 01:49:54;;;;;;;;;;;3.00;99.90;;;;;;4903013;29;19927;-78
2023/03/02 01:52:20;;;;;;;;;;;3.00;99.90;;;;;;4904695;29;19927;-78
2023/03/02 01:54:48;;;;;;;;;;;3.00;99.90;;;;;;4897930;29;20668;-78
2023/03/02 01:57:15;;;;;;;;;;;3.00;99.90;;;;;;4889885;29;20426;-78
2023/03/02 01:59:41;;;;;;;;;;;3.10;99.90;;;;;;4886060;29;19927;-78
2023/03/02 02:02:07;;;;;;;;;;;3.90;99.90;;;;;;4888633;29;19934;-78
2023/03/02 02:04:36;;;;;;;;;;;4.90;99.90;;;;;;4908307;29;19927;-78
2023/03/02 02:07:03;;;;;;;;;;;3.00;99.90;;;;;;4905392;29;20067;-77
2023/03/02 02:09:30;;;;;;;;;;;4.10;99.90;;;;;;4883971;29;19924;-78
2023/03/02 02:11:56;;;;;;;;;;;5.40;99.90;;;;;;4890949;29;19931;-78
2023/03/02 02:14:22;;;;;;;;;;;3.00;99.90;;;;;;4887932;29;19932;-78
2023/03/02 02:16:48;;;;;;;;;;;5.20;99.90;;;;;;4889953;29;19976;-78
2023/03/02 02:19:23;;;;;;;;;;;3.00;99.90;;;;;;4906191;29;19931;-78
2023/03/02 02:21:49;;;;;;;;;;;3.10;99.90;;;;;;4889962;29;19924;-78
2023/03/02 02:24:17;;;;;;;;;;;4.40;99.90;;;;;;4905700;29;20282;-78
2023/03/02 02:26:44;;;;;;;;;;;3.10;99.90;;;;;;4887860;29;19935;-78
2023/03/02 02:29:44;;;;;;;;;;;3.10;99.90;;;;;;4890281;29;19927;-78
2023/03/02 02:32:15;;;;;;;;;;;3.10;99.90;;;;;;4878471;29;20010;-78
2023/03/02 02:34:45;;;;;;;;;;;3.10;99.90;;;;;;4904169;29;20387;-78
2023/03/02 02:37:13;;;;;;;;;;;4.70;99.90;;;;;;4897534;29;19928;-78
2023/03/02 02:39:41;;;;;;;;;;;3.00;99.90;;;;;;4889830;29;20282;-78
2023/03/02 02:42:12;;;;;;;;;;;3.00;99.90;;;;;;4905377;29;19927;-78
2023/03/02 02:44:38;;;;;;;;;;;4.30;99.90;;;;;;4889639;29;19927;-78
2023/03/02 02:47:13;;;;;;;;;;;3.00;99.90;;;;;;4905314;29;20019;-78
2023/03/02 02:49:39;;;;;;;;;;;3.00;99.90;;;;;;4905762;29;19923;-78
2023/03/02 02:52:05;;;;;;;;;;;2.90;99.90;;;;;;4905550;29;19934;-78
2023/03/02 02:54:31;;;;;;;;;;;2.80;99.90;;;;;;4906994;29;20280;-78
2023/03/02 02:56:58;;;;;;;;;;;2.80;99.90;;;;;;4897450;29;19927;-78
2023/03/02 02:59:27;;;;;;;;;;;3.50;99.90;;;;;;4901445;29;19979;-78
2023/03/02 03:01:53;;;;;;;;;;;4.20;99.90;;;;;;4907233;29;20450;-77
2023/03/02 03:04:23;;;;;;;;;;;2.80;99.90;;;;;;4878873;29;20018;-77
2023/03/02 03:06:52;;;;;;;;;;;4.10;99.90;;;;;;4900877;29;20303;-78
2023/03/02 03:09:18;;;;;;;;;;;3.40;99.90;;;;;;4907959;29;20303;-77
2023/03/02 03:11:45;;;;;;;;;;;2.80;99.90;;;;;;4904383;29;19932;-77
2023/03/02 03:14:15;;;;;;;;;;;2.80;99.90;;;;;;4906540;29;19927;-77
2023/03/02 03:16:43;;;;;;;;;;;2.70;99.90;;;;;;4886790;29;20662;-78
2023/03/02 03:19:12;;;;;;;;;;;2.80;99.90;;;;;;4905031;29;19927;-78
2023/03/02 03:21:37;;;;;;;;;;;3.50;99.90;;;;;;4892609;29;19952;-78
2023/03/02 03:24:03;;;;;;;;;;;3.20;99.90;;;;;;4891885;29;19931;-78
2023/03/02 03:26:28;;;;;;;;;;;2.90;99.90;;;;;;4907454;29;19927;-78
2023/03/02 03:28:56;;;;;;;;;;;2.90;99.90;;;;;;4899282;29;19935;-78
2023/03/02 03:31:22;;;;;;;;;;;2.90;99.90;;;;;;4909903;29;19927;-78
2023/03/02 03:33:48;;;;;;;;;;;4.30;99.90;;;;;;4908167;29;19927;-78
2023/03/02 03:36:14;;;;;;;;;;;2.90;99.90;;;;;;4908338;29;19987;-78
2023/03/02 03:38:39;;;;;;;;;;;3.00;99.90;;;;;;4907231;29;19928;-78
2023/03/02 03:41:05;;;;;;;;;;;3.00;99.90;;;;;;4909797;29;19928;-78
2023/03/02 03:43:30;;;;;;;;;;;4.30;99.90;;;;;;4892167;29;19927;-78
2023/03/02 03:45:56;;;;;;;;;;;2.90;99.90;;;;;;4898876;29;19970;-78
2023/03/02 03:48:28;;;;;;;;;;;3.00;99.90;;;;;;4893024;29;19981;-78
2023/03/02 03:50:53;;;;;;;;;;;2.40;99.90;;;;;;4896148;29;20309;-78
2023/03/02 03:53:19;;;;;;;;;;;2.90;99.90;;;;;;4906211;29;20038;-78
2023/03/02 03:55:49;;;;;;;;;;;2.90;99.90;;;;;;4894673;29;19998;-78
2023/03/02 03:58:14;;;;;;;;;;;4.50;99.90;;;;;;4889804;29;19970;-78
2023/03/02 04:00:40;;;;;;;;;;;2.90;99.90;;;;;;4893536;29;20320;-78
2023/03/02 04:03:05;;;;;;;;;;;2.90;99.90;;;;;;4893463;29;19934;-78
2023/03/02 04:05:31;;;;;;;;;;;2.90;99.90;;;;;;4908028;29;19934;-78
2023/03/02 04:08:00;;;;;;;;;;;3.70;99.90;;;;;;4906209;29;19927;-78
2023/03/02 04:10:27;;;;;;;;;;;4.30;99.90;;;;;;4909110;29;19931;-78
2023/03/02 04:12:52;;;;;;;;;;;4.40;99.90;;;;;;4891421;29;19998;-78
2023/03/02 04:15:18;;;;;;;;;;;4.70;99.90;;;;;;4891270;29;20387;-78
2023/03/02 04:17:44;;;;;;;;;;;2.90;99.90;;;;;;4910436;29;19994;-78
2023/03/02 04:20:13;;;;;;;;;;;2.90;99.90;;;;;;4893669;29;19931;-78
2023/03/02 04:22:38;;;;;;;;;;;2.90;99.90;;;;;;4904418;29;19927;-78
2023/03/02 04:25:04;;;;;;;;;;;2.90;99.90;;;;;;4910574;29;19950;-78
2023/03/02 04:27:30;;;;;;;;;;;2.90;99.90;;;;;;4888331;29;20272;-78
2023/03/02 04:29:55;;;;;;;;;;;2.90;99.90;;;;;;4891261;29;19927;-78
2023/03/02 04:32:21;;;;;;;;;;;3.00;99.90;;;;;;4906843;29;19927;-78
2023/03/02 04:34:46;;;;;;;;;;;3.00;99.90;;;;;;4907520;29;20302;-78
2023/03/02 04:37:12;;;;;;;;;;;3.00;99.90;;;;;;4890689;29;19939;-78
2023/03/02 04:39:37;;;;;;;;;;;4.80;99.90;;;;;;4892725;29;19934;-77
2023/03/02 04:42:03;;;;;;;;;;;4.40;99.90;;;;;;4906191;29;19967;-77
2023/03/02 04:44:28;;;;;;;;;;;3.00;99.90;;;;;;4892587;29;19927;-78
2023/03/02 04:46:54;;;;;;;;;;;3.00;99.90;;;;;;4890550;29;19956;-79
2023/03/02 04:49:20;;;;;;;;;;;3.00;99.90;;;;;;4888366;29;19932;-78
2023/03/02 04:51:47;;;;;;;;;;;4.80;99.90;;;;;;4900288;29;19928;-78
2023/03/02 04:54:17;;;;;;;;;;;3.00;99.90;;;;;;4891311;29;19998;-78
2023/03/02 04:56:43;;;;;;;;;;;3.10;99.90;;;;;;4901359;29;19930;-78
2023/03/02 04:59:09;;;;;;;;;;;3.10;99.90;;;;;;4907381;29;20046;-78
2023/03/02 05:01:34;;;;;;;;;;;3.10;99.90;;;;;;4892635;29;20025;-78
2023/03/02 05:04:00;;;;;;;;;;;3.00;99.90;;;;;;4906198;29;19935;-78
2023/03/02 05:06:25;;;;;;;;;;;3.00;99.90;;;;;;4900186;29;19943;-77
2023/03/02 05:08:53;;;;;;;;;;;3.00;99.90;;;;;;4885322;29;20371;-77
2023/03/02 05:11:22;;;;;;;;;;;3.10;99.90;;;;;;4899202;29;19934;-77
2023/03/02 05:13:48;;;;;;;;;;;3.00;99.90;;;;;;4882936;29;19974;-77
2023/03/02 05:16:14;;;;;;;;;;;3.10;99.90;;;;;;4881648;29;19927;-78
2023/03/02 05:18:39;;;;;;;;;;;3.90;99.90;;;;;;4899274;29;20522;-78
2023/03/02 05:21:05;;;;;;;;;;;3.10;99.90;;;;;;4899486;29;20376;-78
2023/03/02 05:23:30;;;;;;;;;;;3.00;99.90;;;;;;4881603;29;19927;-78
2023/03/02 05:25:56;;;;;;;;;;;3.00;99.90;;;;;;4887365;29;20058;-78
2023/03/02 05:28:23;;;;;;;;;;;3.00;99.90;;;;;;4904173;29;19924;-77
2023/03/02 05:30:49;;;;;;;;;;;3.00;99.90;;;;;;4888270;29;20407;-78
2023/03/02 05:33:15;;;;;;;;;;;3.00;99.90;;;;;;4890216;29;19927;-78
2023/03/02 05:35:41;;;;;;;;;;;3.00;99.90;;;;;;4902165;29;19924;-78
2023/03/02 05:38:06;;;;;;;;;;;3.00;99.90;;;;;;4881073;29;19935;-77
2023/03/02 05:40:32;;;;;;;;;;;3.10;99.90;;;;;;4888299;29;19927;-79
2023/03/02 05:42:58;;;;;;;;;;;3.00;99.90;;;;;;4905195;29;20392;-79
2023/03/02 05:45:28;;;;;;;;;;;3.00;99.90;;;;;;4907347;29;19999;-78
2023/03/02 05:47:53;;;;;;;;;;;3.00;99.90;;;;;;4901912;29;19982;-79
2023/03/02 05:50:19;;;;;;;;;;;3.00;99.90;;;;;;4905392;29;20382;-78
2023/03/02 05:52:45;;;;;;;;;;;3.80;99.90;;;;;;4907421;29;20038;-78
2023/03/02 05:55:11;;;;;;;;;;;3.00;99.90;;;;;;4906588;29;20299;-78
2023/03/02 05:57:37;;;;;;;;;;;3.00;99.90;;;;;;4907008;29;19927;-78
2023/03/02 06:00:04;;;;;;;;;;;5.40;99.90;;;;;;4906594;29;20283;-78
2023/03/02 06:02:32;;;;;;;;;;;2.90;99.90;;;;;;4896116;29;20404;-78
2023/03/02 06:04:57;;;;;;;;;;;3.00;99.90;;;;;;4906013;29;20013;-78
2023/03/02 06:07:23;;;;;;;;;;;3.00;99.90;;;;;;4891048;29;19927;-77
2023/03/02 06:09:49;;;;;;;;;;;2.90;99.90;;;;;;4905148;29;20039;-78
2023/03/02 06:12:16;;;;;;;;;;;2.90;99.90;;;;;;4908534;29;19933;-77
2023/03/02 06:14:42;;;;;;;;;;;3.80;99.90;;;;;;4888129;29;20307;-77
2023/03/02 06:17:08;;;;;;;;;;;2.90;99.90;;;;;;4901053;29;20023;-78
2023/03/02 06:19:33;;;;;;;;;;;3.90;99.90;;;;;;4905619;29;20292;-77
2023/03/02 06:21:59;;;;;;;;;;;3.00;99.90;;;;;;4890769;29;20287;-78
2023/03/02 06:24:24;;;;;;;;;;;3.00;99.90;;;;;;4902568;29;19927;-78
2023/03/02 06:26:51;;;;;;;;;;;3.00;99.90;;;;;;4907429;29;20006;-78
2023/03/02 06:29:17;;;;;;;;;;;4.40;99.90;;;;;;4904755;29;19934;-78
2023/03/02 06:31:42;;;;;;;;;;;3.90;99.90;;;;;;4890826;29;20299;-78
2023/03/02 06:34:08;;;;;;;;;;;3.40;99.90;;;;;;4884278;29;20395;-78
2023/03/02 06:36:37;;;;;;;;;;;3.00;99.90;;;;;;4898614;29;19935;-78
2023/03/02 06:39:03;;;;;;;;;;;3.00;99.90;;;;;;4888955;29;20295;-78
2023/03/02 06:41:29;;;;;;;;;;;4.30;99.90;;;;;;4888498;29;19965;-78
2023/03/02 06:43:54;;;;;;;;;;;3.00;99.90;;;;;;4889593;29;20335;-78
2023/03/02 06:46:20;;;;;;;;;;;3.10;99.90;;;;;;4887590;29;19927;-78
2023/03/02 06:48:45;;;;;;;;;;;3.10;99.90;;;;;;4894915;29;20393;-78
2023/03/02 06:51:11;;;;;;;;;;;3.10;99.90;;;;;;4890939;29;19927;-78
2023/03/02 06:53:37;;;;;;;;;;;3.00;99.90;;;;;;4887592;29;19927;-78
2023/03/02 06:56:03;;;;;;;;;;;3.20;99.90;;;;;;4896186;29;20026;-78
2023/03/02 06:58:29;;;;;;;;;;;3.00;99.90;;;;;;4910310;29;19975;-78
2023/03/02 07:00:55;;;;;;;;;;;3.00;99.90;;;;;;4910288;29;19934;-77
2023/03/02 07:03:21;;;;;;;;;;;4.50;99.90;;;;;;4891825;29;19927;-78
2023/03/02 07:05:47;;;;;;;;;;;4.00;99.90;;;;;;4894143;29;20828;-77
2023/03/02 07:08:13;;;;;;;;;;;3.00;99.90;;;;;;4908305;29;19987;-78
2023/03/02 07:10:38;;;;;;;;;;;4.90;99.90;;;;;;4891671;29;20375;-74
2023/03/02 07:13:04;;;;;;;;;;;3.00;99.90;;;;;;4887539;29;19930;-76
2023/03/02 07:15:29;;;;;;;;;;;3.00;99.90;;;;;;4908742;29;19982;-77
2023/03/02 07:17:57;;;;;;;;;;;5.30;99.90;;;;;;4892461;29;19927;-77
2023/03/02 07:20:23;;;;;;;;;;;3.40;99.90;;;;;;4907139;29;20336;-70
2023/03/02 07:22:48;;;;;;;;;;;4.00;99.90;;;;;;4894292;29;19928;-70
2023/03/02 07:25:14;;;;;;;;;;;3.00;99.90;;;;;;4911598;29;20273;-71
2023/03/02 07:27:40;;;;;;;;;;;3.20;99.90;;;;;;4897453;29;20295;-71
2023/03/02 07:30:05;;;;;;;;;;;4.40;99.90;;;;;;4907132;29;19982;-73
2023/03/02 07:32:31;;;;;;;;;;;3.10;99.90;;;;;;4910507;29;19962;-74
2023/03/02 07:34:56;;;;;;;;;;;3.10;99.90;;;;;;4907706;29;20299;-74
2023/03/02 07:37:22;;;;;;;;;;;3.10;99.90;;;;;;4891120;29;19927;-73
2023/03/02 07:39:48;;;;;;;;;;;4.60;99.90;;;;;;4906428;29;20014;-76
2023/03/02 07:42:14;;;;;;;;;;;5.00;99.90;;;;;;4892107;29;19931;-74
2023/03/02 07:44:39;;;;;;;;;;;3.00;99.90;;;;;;4906410;29;19927;-73
2023/03/02 07:47:05;;;;;;;;;;;3.10;99.90;;;;;;4907468;29;19927;-75
2023/03/02 07:49:31;;;;;;;;;;;3.10;99.90;;;;;;4907360;29;19928;-75
2023/03/02 07:51:57;;;;;;;;;;;3.10;99.90;;;;;;4887088;29;19934;-75
2023/03/02 07:54:25;;;;;;;;;;;3.10;99.90;;;;;;4908278;29;19927;-71
2023/03/02 07:56:50;;;;;;;;;;;3.30;99.90;;;;;;4892272;29;20379;-73
2023/03/02 07:59:16;;;;;;;;;;;3.30;99.90;;;;;;4908525;29;19934;-75
2023/03/02 08:01:41;;;;;;;;;;;3.20;99.90;;;;;;4907934;29;19928;-71
2023/03/02 08:04:07;;;;;;;;;;;4.70;99.90;;;;;;4893203;29;19934;-72
2023/03/02 08:06:33;;;;;;;;;;;3.30;99.90;;;;;;4889034;29;19958;-78
2023/03/02 08:09:00;;;;;;;;;;;4.40;99.90;;;;;;4890794;29;19935;-73
2023/03/02 08:11:26;;;;;;;;;;;3.30;99.90;;;;;;4892678;29;20019;-73
2023/03/02 08:13:51;;;;;;;;;;;5.10;99.90;;;;;;4889092;29;20360;-70
2023/03/02 08:16:17;;;;;;;;;;;5.50;99.90;;;;;;4893743;29;20382;-74
2023/03/02 08:18:42;;;;;;;;;;;3.50;99.90;;;;;;4899186;29;20288;-76
2023/03/02 08:21:16;;;;;;;;;;;5.30;99.90;;;;;;4904013;29;20015;-77
2023/03/02 08:23:42;;;;;;;;;;;3.40;99.90;;;;;;4889998;29;19934;-77
2023/03/02 08:26:07;;;;;;;;;;;3.50;99.90;;;;;;4890735;29;20302;-77
2023/03/02 08:28:33;;;;;;;;;;;3.60;99.90;;;;;;4906877;29;19959;-76
2023/03/02 08:30:59;;;;;;;;;;;3.70;99.90;;;;;;4906447;29;20070;-77
2023/03/02 08:33:26;;;;;;;;;;;5.30;99.90;;;;;;4904744;29;20406;-77
2023/03/02 08:35:59;;;;;;;;;;;3.80;99.90;;;;;;4898708;29;19970;-77
2023/03/02 08:38:25;;;;;;;;;;;3.80;99.90;;;;;;4883690;29;19975;-76
2023/03/02 08:40:51;;;;;;;;;;;5.60;99.90;;;;;;4905620;29;19974;-76
2023/03/02 08:43:17;;;;;;;;;;;4.70;99.90;;;;;;4905064;29;19963;-76
2023/03/02 08:45:42;;;;;;;;;;;4.70;99.90;;;;;;4906894;29;20022;-76
2023/03/02 08:48:08;;;;;;;;;;;4.10;99.90;;;;;;4906009;29;20026;-76
2023/03/02 08:50:33;;;;;;;;;;;4.00;99.90;;;;;;4905589;29;19931;-76
2023/03/02 08:52:59;;;;;;;;;;;4.10;99.90;;;;;;4892184;29;19974;-76
2023/03/02 08:55:24;;;;;;;;;;;4.00;99.90;;;;;;4888600;29;20033;-76
2023/03/02 08:57:50;;;;;;;;;;;4.10;99.90;;;;;;4893284;29;19978;-76
2023/03/02 09:00:16;;;;;;;;;;;5.60;99.90;;;;;;4882306;29;20412;-76
2023/03/02 09:02:44;;;;;;;;;;;4.20;99.90;;;;;;4905556;29;19978;-76
2023/03/02 09:05:11;;;;;;;;;;;6.80;99.90;;;;;;4907183;29;19970;-76
2023/03/02 09:07:36;;;;;;;;;;;4.80;99.90;;;;;;4907936;29;20028;-77
2023/03/02 09:10:02;;;;;;;;;;;6.20;99.90;;;;;;4890874;29;20027;-77
2023/03/02 09:12:28;;;;;;;;;;;5.10;99.90;;;;;;4897627;29;19935;-76
2023/03/02 09:14:53;;;;;;;;;;;5.60;99.90;;;;;;4889815;29;19935;-76
2023/03/02 09:17:19;;;;;;;;;;;5.30;99.90;;;;;;4887359;29;19971;-76
2023/03/02 09:19:44;;;;;;;;;;;6.20;99.90;;;;;;4908773;29;19950;-76
2023/03/02 09:22:13;;;;;;;;;;;5.20;99.90;;;;;;4906793;29;20272;-77
2023/03/02 09:24:38;;;;;;;;;;;5.30;99.90;;;;;;4907445;29;20505;-78
2023/03/02 09:27:04;;;;;;;;;;;6.60;99.90;;;;;;4890391;29;19934;-78
2023/03/02 09:29:29;;;;;;;;;;;6.90;99.90;;;;;;4887561;29;19923;-78
2023/03/02 09:31:55;;;;;;;;;;;5.80;99.90;;;;;;4890055;29;19938;-78
2023/03/02 09:34:20;;;;;;;;;;;8.20;99.90;;;;;;4891454;29;20379;-78
2023/03/02 09:36:49;;;;;;;;;;;7.10;99.90;;;;;;4905418;29;19923;-80
2023/03/02 09:39:26;;;;;;;;;;;7.30;99.90;;;;;;5139014;27;20422;-81
2023/03/02 09:42:10;;;;;;;;;;;8.50;99.90;;;;;;5139855;27;19937;-80
2023/03/02 09:44:35;;;;;;;;;;;9.10;99.90;;;;;;5138987;27;20422;-80
2023/03/02 09:47:01;;;;;;;;;;;9.80;99.90;;;;;;5139826;27;19919;-80
2023/03/02 09:49:27;;;;;;;;;;;11.10;99.90;;;;;;5140467;27;19984;-80
2023/03/02 09:52:11;;;;;;;;;;;12.00;99.90;;;;;;5139302;27;20016;-79
2023/03/02 09:54:37;;;;;;;;;;;12.80;99.90;;;;;;5138751;27;20378;-80
2023/03/02 09:57:13;;;;;;;;;;;13.50;99.90;;;;;;5141426;27;19971;-80
2023/03/02 09:59:42;;;;;;;;;;;14.70;99.90;;;;;;5137560;27;20291;-78
2023/03/02 10:02:26;;;;;;;;;;;15.70;97.70;;;;;;5140618;27;20297;-80
2023/03/02 10:04:53;;;;;;;;;;;15.70;93.80;;;;;;5139005;27;20432;-80
2023/03/02 10:07:23;;;;;;;;;;;16.30;93.80;;;;;;5137731;27;19924;-80
2023/03/02 10:09:49;;;;;;;;;;;15.90;94.20;;;;;;5141315;27;19945;-81
2023/03/02 10:12:27;;;;;;;;;;;16.20;94.00;;;;;;5136694;27;20445;-80
2023/03/02 10:14:58;;;;;;;;;;;16.70;93.80;;;;;;5173722;27;19928;-80
2023/03/02 10:17:24;;;;;;;;;;;16.80;91.90;;;;;;5138453;27;19930;-80
2023/03/02 10:19:54;;;;;;;;;;;17.20;92.60;;;;;;5141034;27;20022;-80
2023/03/02 10:22:28;;;;;;;;;;;17.80;93.00;;;;;;5139097;27;19936;-81
2023/03/02 10:25:07;;;;;;;;;;;18.10;90.90;;;;;;5140758;27;19931;-81
2023/03/02 10:27:38;;;;;;;;;;;17.50;89.90;;;;;;5136675;27;19928;-81
2023/03/02 10:30:15;;;;;;;;;;;17.90;91.40;;;;;;5137470;27;19932;-81
2023/03/02 10:32:42;;;;;;;;;;;18.10;91.20;;;;;;5137618;27;19959;-81
2023/03/02 10:35:34;;;;;;;;;;;18.70;89.40;;;;;;5141349;27;19923;-81
2023/03/02 10:38:03;;;;;;;;;;;18.30;87.10;;;;;;5134358;27;19959;-81
2023/03/02 10:40:38;;;;;;;;;;;18.20;90.30;;;;;;5137741;27;19923;-81
2023/03/02 10:43:04;;;;;;;;;;;18.60;89.00;;;;;;5167709;27;20006;-81
2023/03/02 10:45:31;;;;;;;;;;;18.40;86.60;;;;;;5136057;27;19924;-81
2023/03/02 10:48:04;;;;;;;;;;;18.70;87.60;;;;;;5138923;27;20366;-81
2023/03/02 10:50:30;;;;;;;;;;;19.00;86.60;;;;;;5124557;27;19928;-81
2023/03/02 10:52:56;;;;;;;;;;;19.40;85.90;;;;;;5125538;27;19939;-81
2023/03/02 10:55:21;;;;;;;;;;;19.00;84.60;;;;;;5124005;27;19984;-80
2023/03/02 10:58:02;;;;;;;;;;;19.30;84.50;;;;;;5124496;27;20332;-81
2023/03/02 11:00:29;;;;;;;;;;;18.90;83.90;;;;;;5123580;27;20356;-81
2023/03/02 11:02:56;;;;;;;;;;;19.00;85.90;;;;;;5123907;27;19919;-81
2023/03/02 11:05:21;;;;;;;;;;;19.20;82.00;;;;;;5123188;27;19928;-79
2023/03/02 11:08:03;;;;;;;;;;;19.50;82.80;;;;;;5125258;27;19927;-78
2023/03/02 11:10:30;;;;;;;;;;;18.90;81.70;;;;;;5152282;27;20375;-78
2023/03/02 11:12:57;;;;;;;;;;;19.30;80.60;;;;;;5124447;27;19927;-78
2023/03/02 11:15:25;;;;;;;;;;;19.40;81.10;;;;;;5125068;27;20308;-78
2023/03/02 11:17:59;;;;;;;;;;;19.50;83.00;;;;;;5124181;27;20070;-80
2023/03/02 11:20:28;;;;;;;;;;;19.60;83.50;;;;;;5125137;27;20011;-81
2023/03/02 11:22:58;;;;;;;;;;;19.80;82.00;;;;;;5121594;27;19930;-81
2023/03/02 11:25:35;;;;;;;;;;;20.30;84.50;;;;;;5126736;27;19930;-80
2023/03/02 11:28:04;;;;;;;;;;;20.00;82.80;;;;;;5116002;27;19969;-81
2023/03/02 11:30:33;;;;;;;;;;;20.10;82.70;;;;;;5125697;27;19970;-81
2023/03/02 11:33:12;;;;;;;;;;;20.20;83.40;;;;;;5121844;27;19923;-81
2023/03/02 11:35:46;;;;;;;;;;;20.50;82.90;;;;;;5125306;27;19927;-80
2023/03/02 11:38:29;;;;;;;;;;;20.50;80.60;;;;;;5122818;27;19924;-81
2023/03/02 11:41:01;;;;;;;;;;;20.60;80.40;;;;;;5117708;27;19931;-80
2023/03/02 11:43:27;;;;;;;;;;;20.20;82.70;;;;;;5117172;27;20310;-81
2023/03/02 11:46:01;;;;;;;;;;;20.30;82.40;;;;;;5125214;27;19945;-78
2023/03/02 11:48:34;;;;;;;;;;;20.20;82.00;;;;;;5119310;27;19928;-78
2023/03/02 11:51:04;;;;;;;;;;;20.30;82.50;;;;;;5123343;27;20309;-78
2023/03/02 11:53:40;;;;;;;;;;;20.20;81.70;;;;;;5121907;27;19924;-78
2023/03/02 11:56:06;;;;;;;;;;;19.90;82.70;;;;;;5124734;27;19923;-78
2023/03/02 11:58:31;;;;;;;;;;;19.90;82.80;;;;;;5120783;27;19948;-79
2023/03/02 12:00:57;;;;;;;;;;;19.80;82.60;;;;;;5122111;27;19977;-79
2023/03/02 12:03:44;;;;;;;;;;;19.90;82.40;;;;;;5122816;27;20007;-79
2023/03/02 12:06:12;;;;;;;;;;;19.90;81.70;;;;;;5122106;27;20259;-79
2023/03/02 12:08:40;;;;;;;;;;;20.00;82.10;;;;;;5119020;27;20385;-79
2023/03/02 12:11:08;;;;;;;;;;;19.80;82.00;;;;;;5123519;27;20298;-79
2023/03/02 12:13:35;;;;;;;;;;;19.80;81.20;;;;;;5123726;27;20370;-79
2023/03/02 12:16:01;;;;;;;;;;;19.80;81.80;;;;;;5130802;22;20251;-78
2023/03/02 12:18:29;;;;;;;;;;;19.60;82.60;;;;;;5063002;28;20475;-81
2023/03/02 12:20:57;;;;;;;;;;;19.50;82.00;;;;;;5063382;28;19963;-81
2023/03/02 12:23:25;;;;;;;;;;;19.50;83.20;;;;;;5062019;28;19928;-81
2023/03/02 12:26:05;;;;;;;;;;;19.10;82.90;;;;;;5063380;28;19986;-81
2023/03/02 12:28:33;;;;;;;;;;;18.40;83.30;;;;;;5061540;28;19924;-81
2023/03/02 12:31:07;;;;;;;;;;;18.00;85.80;;;;;;5062866;28;19983;-81
2023/03/02 12:33:37;;;;;;;;;;;18.30;84.90;;;;;;5062004;28;19994;-81
2023/03/02 12:36:22;;;;;;;;;;;18.60;83.80;;;;;;5061402;28;19924;-81
2023/03/02 12:38:56;;;;;;;;;;;18.50;85.40;;;;;;5059377;28;19928;-81
2023/03/02 12:41:21;;;;;;;;;;;18.70;86.40;;;;;;5061193;28;19924;-81
2023/03/02 12:43:55;;;;;;;;;;;18.60;85.20;;;;;;5059844;28;20015;-81
2023/03/02 12:46:27;;;;;;;;;;;18.20;85.40;;;;;;5059192;28;19979;-81
2023/03/02 12:49:11;;;;;;;;;;;17.30;85.50;;;;;;5062122;28;19932;-81
2023/03/02 12:51:49;;;;;;;;;;;16.20;89.00;;;;;;5063400;28;19929;-81
2023/03/02 12:54:18;;;;;;;;;;;15.40;90.40;;;;;;5058902;28;19924;-81
2023/03/02 12:56:45;;;;;;;;;;;14.90;90.90;;;;;;5058875;28;19932;-80
2023/03/02 12:59:18;;;;;;;;;;;16.00;91.40;;;;;;5062982;28;19951;-80
2023/03/02 13:01:44;;;;;;;;;;;15.40;90.30;;;;;;5059608;28;20011;-80
2023/03/02 13:04:19;;;;;;;;;;;15.40;91.30;;;;;;5063546;28;20422;-80
2023/03/02 13:06:45;;;;;;;;;;;16.00;90.90;;;;;;5060593;28;19925;-80
2023/03/02 13:09:12;;;;;;;;;;;16.20;90.40;;;;;;5060128;28;19932;-80
2023/03/02 13:11:38;;;;;;;;;;;16.10;90.50;;;;;;5060444;28;19975;-81
2023/03/02 13:14:22;;;;;;;;;;;16.30;90.70;;;;;;5062638;28;19921;-81
2023/03/02 13:16:58;;;;;;;;;;;15.90;90.80;;;;;;5061937;28;19978;-80
2023/03/02 13:19:24;;;;;;;;;;;15.50;91.50;;;;;;5061597;28;20291;-81
2023/03/02 13:21:50;;;;;;;;;;;15.50;91.80;;;;;;5060438;28;20343;-81
2023/03/02 13:24:27;;;;;;;;;;;15.40;92.10;;;;;;5061189;28;19972;-81
2023/03/02 13:26:57;;;;;;;;;;;15.20;91.30;;;;;;5061048;28;20390;-80
2023/03/02 13:29:25;;;;;;;;;;;14.80;93.10;;;;;;5061521;28;19931;-81
2023/03/02 13:31:50;;;;;;;;;;;14.40;92.10;;;;;;5061853;28;20397;-81
2023/03/02 13:34:24;;;;;;;;;;;13.80;93.10;;;;;;5062041;28;19924;-81
2023/03/02 13:36:50;;;;;;;;;;;13.10;94.00;;;;;;5061310;28;19964;-81
2023/03/02 13:39:19;;;;;;;;;;;12.70;95.60;;;;;;5062808;28;20019;-81
2023/03/02 13:41:58;;;;;;;;;;;12.50;97.20;;;;;;5061677;28;19964;-80
2023/03/02 13:44:28;;;;;;;;;;;12.40;97.10;;;;;;5060337;28;19986;-81
2023/03/02 13:46:54;;;;;;;;;;;12.30;97.40;;;;;;5062264;28;19925;-80
2023/03/02 13:49:31;;;;;;;;;;;12.20;97.60;;;;;;5060679;28;19963;-80
2023/03/02 13:52:04;;;;;;;;;;;12.10;98.50;;;;;;5062153;28;20379;-80
2023/03/02 13:54:32;;;;;;;;;;;11.90;98.30;;;;;;5061387;28;19925;-80
2023/03/02 13:56:59;;;;;;;;;;;11.70;99.00;;;;;;5064460;28;20358;-81
2023/03/02 13:59:25;;;;;;;;;;;11.90;98.90;;;;;;5060273;28;19931;-80
2023/03/02 14:01:51;;;;;;;;;;;11.60;99.80;;;;;;5060702;28;19924;-80
2023/03/02 14:04:20;;;;;;;;;;;11.50;99.90;;;;;;5062784;28;19979;-79
2023/03/02 14:06:45;;;;;;;;;;;11.40;99.10;;;;;;5058811;28;19932;-79
2023/03/02 14:09:11;;;;;;;;;;;11.50;99.90;;;;;;5061259;28;20275;-79
2023/03/02 14:11:39;;;;;;;;;;;11.20;99.90;;;;;;5059222;28;19929;-78
2023/03/02 14:14:05;;;;;;;;;;;11.00;99.90;;;;;;5063307;28;19924;-78
2023/03/02 14:16:33;;;;;;;;;;;10.90;99.90;;;;;;5059301;28;20383;-78
2023/03/02 14:18:59;;;;;;;;;;;10.70;99.90;;;;;;5059066;28;19948;-78
2023/03/02 14:21:24;;;;;;;;;;;10.70;99.90;;;;;;5061406;28;20260;-78
2023/03/02 14:23:51;;;;;;;;;;;10.40;99.90;;;;;;5059757;28;20409;-78
2023/03/02 14:26:16;;;;;;;;;;;10.80;99.90;;;;;;5065220;28;19978;-78
2023/03/02 14:28:42;;;;;;;;;;;10.30;99.90;;;;;;5063896;28;19929;-78
2023/03/02 14:31:08;;;;;;;;;;;10.30;99.90;;;;;;5063656;28;20011;-77